Terminal Aerodrome Forecast
Issued by NWS

Home | Current Version | Previous Version | Text Only | Print | Product List | Glossary On
Versions: 1 2 3 4 5 6 7 8 9 10 11 12 13 14 15 16 17 18 19
298
FTUS44 KTSA 191608 AAA
TAFBVO
TAF AMD
KBVO 191608Z 1916/2012 VRB05KT P6SM VCTS BKN090CB
     FM191800 17012G20KT P6SM FEW050
     FM200100 17013KT P6SM SKC=

USA.gov is the U.S. government's official web portal to all federal, state and local government web resources and services.